Time;durP1;ratioP1;P1;durP2;ratioP2;P2;SDS_P1;SDS_P2;PMS_P1;PMS_P2;Temp;Humidity;BMP_temperature;BMP_pressure;BME280_temperature;BME280_humidity;BME280_pressure;Samples;Min_cycle;Max_cycle;Signal;HPM_P1;HPM_P2
2021/03/19 00:00:07;;;;;;;17.17;4.53;;;;;;;;;;4096514;34;20385;-83
2021/03/19 00:02:38;;;;;;;17.62;5.28;;;;;;;;;;4100194;34;20132;-83
2021/03/19 00:05:14;;;;;;;26.75;5.00;;;;;;;;;;4099903;34;20101;-84
2021/03/19 00:07:42;;;;;;;19.05;4.32;;;;;;;;;;4100783;34;20549;-84
2021/03/19 00:10:11;;;;;;;21.45;5.00;;;;;;;;;;4105657;34;20398;-84
2021/03/19 00:12:40;;;;;;;17.52;4.43;;;;;;;;;;4104178;35;20088;-83
2021/03/19 00:15:09;;;;;;;19.73;4.32;;;;;;;;;;4101054;34;20132;-83
2021/03/19 00:17:38;;;;;;;16.65;3.72;;;;;;;;;;4103992;34;20488;-83
2021/03/19 00:20:25;;;;;;;21.85;4.47;;;;;;;;;;4108147;34;20081;-82
2021/03/19 00:22:54;;;;;;;23.20;4.78;;;;;;;;;;4104879;35;20066;-83
2021/03/19 00:25:22;;;;;;;20.23;3.97;;;;;;;;;;4104407;34;20049;-83
2021/03/19 00:27:50;;;;;;;21.48;5.00;;;;;;;;;;4103174;34;20070;-83
2021/03/19 00:30:19;;;;;;;20.80;4.20;;;;;;;;;;4084088;34;20059;-83
2021/03/19 00:32:47;;;;;;;22.50;4.87;;;;;;;;;;4102122;34;20983;-83
2021/03/19 00:35:16;;;;;;;20.23;4.45;;;;;;;;;;4102222;34;20061;-83
2021/03/19 00:37:44;;;;;;;18.05;3.80;;;;;;;;;;4104656;35;20080;-83
2021/03/19 00:40:13;;;;;;;17.00;3.95;;;;;;;;;;4104039;34;20058;-83
2021/03/19 00:42:41;;;;;;;13.65;3.90;;;;;;;;;;4104506;35;20728;-83
2021/03/19 00:45:11;;;;;;;16.08;4.20;;;;;;;;;;4103035;34;20504;-82
2021/03/19 00:47:39;;;;;;;21.85;4.25;;;;;;;;;;4099425;34;20066;-83
2021/03/19 00:50:10;;;;;;;17.60;4.00;;;;;;;;;;4089638;35;20153;-83
2021/03/19 00:52:38;;;;;;;19.20;3.95;;;;;;;;;;4103002;34;20128;-83
2021/03/19 00:55:09;;;;;;;21.70;4.20;;;;;;;;;;4099021;34;20155;-83
2021/03/19 00:57:37;;;;;;;21.83;4.37;;;;;;;;;;4099806;34;20422;-83
2021/03/19 01:00:06;;;;;;;22.23;4.45;;;;;;;;;;4110642;34;20057;-83
2021/03/19 01:02:34;;;;;;;18.83;4.25;;;;;;;;;;4102558;34;20053;-82
2021/03/19 01:05:06;;;;;;;16.55;3.70;;;;;;;;;;4100369;34;20112;-83
2021/03/19 01:07:34;;;;;;;19.33;4.60;;;;;;;;;;4099884;35;20084;-83
2021/03/19 01:10:05;;;;;;;20.15;4.10;;;;;;;;;;4111983;34;20136;-83
2021/03/19 01:12:33;;;;;;;17.25;3.55;;;;;;;;;;4100958;34;20062;-83
2021/03/19 01:15:02;;;;;;;16.48;4.07;;;;;;;;;;4102370;34;20057;-82
2021/03/19 01:17:30;;;;;;;20.92;4.80;;;;;;;;;;4098583;34;20536;-84
2021/03/19 01:19:58;;;;;;;13.80;3.20;;;;;;;;;;4104514;34;20124;-83
2021/03/19 01:22:28;;;;;;;18.23;3.67;;;;;;;;;;4100350;34;20446;-82
2021/03/19 01:24:56;;;;;;;18.30;4.03;;;;;;;;;;4096622;34;20498;-82
2021/03/19 01:27:24;;;;;;;18.50;4.00;;;;;;;;;;4087152;35;20120;-83
2021/03/19 01:29:53;;;;;;;17.45;3.83;;;;;;;;;;4103162;34;20085;-83
2021/03/19 01:32:20;;;;;;;16.83;3.85;;;;;;;;;;4088590;35;20104;-83
2021/03/19 01:34:49;;;;;;;21.55;5.40;;;;;;;;;;4099106;34;20104;-83
2021/03/19 01:37:17;;;;;;;22.92;6.43;;;;;;;;;;4100986;34;20151;-83
2021/03/19 01:39:45;;;;;;;27.35;7.60;;;;;;;;;;4114721;34;20080;-83
2021/03/19 01:42:13;;;;;;;25.98;6.78;;;;;;;;;;4101623;34;20621;-83
2021/03/19 01:44:53;;;;;;;22.20;7.28;;;;;;;;;;4099849;34;20120;-83
2021/03/19 01:47:40;;;;;;;26.30;9.88;;;;;;;;;;4101400;34;20499;-83
2021/03/19 01:50:30;;;;;;;25.55;9.60;;;;;;;;;;4111791;34;20446;-84
2021/03/19 01:53:17;;;;;;;15.10;7.68;;;;;;;;;;4096697;34;20527;-83
2021/03/19 01:56:04;;;;;;;21.37;6.28;;;;;;;;;;4088067;35;20107;-83
2021/03/19 01:58:51;;;;;;;20.88;6.30;;;;;;;;;;4107729;34;20479;-83
2021/03/19 02:01:38;;;;;;;20.85;5.12;;;;;;;;;;4099305;34;20172;-83
2021/03/19 02:04:25;;;;;;;23.20;6.20;;;;;;;;;;4096638;34;20604;-82
2021/03/19 02:07:14;;;;;;;18.90;5.10;;;;;;;;;;4099554;34;20112;-83
2021/03/19 02:10:01;;;;;;;19.25;4.12;;;;;;;;;;4100743;34;20109;-83
2021/03/19 02:12:49;;;;;;;25.12;5.50;;;;;;;;;;4098099;34;20119;-83
2021/03/19 02:15:36;;;;;;;24.30;5.35;;;;;;;;;;4086629;35;20062;-82
2021/03/19 02:18:23;;;;;;;17.35;5.53;;;;;;;;;;4102728;34;20103;-83
2021/03/19 02:21:10;;;;;;;23.12;9.73;;;;;;;;;;4097537;34;20101;-83
2021/03/19 02:23:57;;;;;;;23.70;5.10;;;;;;;;;;4095000;34;20120;-83
2021/03/19 02:26:43;;;;;;;22.23;6.50;;;;;;;;;;4103250;35;20144;-83
2021/03/19 02:29:30;;;;;;;27.08;7.22;;;;;;;;;;4110121;34;20434;-83
2021/03/19 02:32:13;;;;;;;20.73;4.60;;;;;;;;;;4096070;34;20105;-83
2021/03/19 02:34:46;;;;;;;18.45;7.15;;;;;;;;;;4098983;35;20095;-83
2021/03/19 02:37:17;;;;;;;21.75;5.00;;;;;;;;;;4103455;34;20594;-83
2021/03/19 02:39:45;;;;;;;18.87;4.82;;;;;;;;;;4096747;34;20143;-83
2021/03/19 02:42:14;;;;;;;22.13;8.80;;;;;;;;;;4094582;34;20094;-83
2021/03/19 02:44:43;;;;;;;23.02;12.55;;;;;;;;;;4097904;34;20686;-84
2021/03/19 02:47:12;;;;;;;23.67;11.68;;;;;;;;;;4101231;34;20124;-84
2021/03/19 02:49:40;;;;;;;18.25;9.90;;;;;;;;;;4103414;34;20111;-83
2021/03/19 02:52:20;;;;;;;18.23;10.85;;;;;;;;;;4095695;34;20155;-83
2021/03/19 02:55:01;;;;;;;24.08;12.40;;;;;;;;;;4101445;34;20073;-84
2021/03/19 02:57:30;;;;;;;23.05;12.77;;;;;;;;;;4103778;35;20070;-83
2021/03/19 02:59:58;;;;;;;24.27;11.80;;;;;;;;;;4100002;34;20327;-83
2021/03/19 03:02:26;;;;;;;22.13;12.50;;;;;;;;;;4096900;35;20110;-83
2021/03/19 03:04:55;;;;;;;28.45;13.62;;;;;;;;;;4101857;34;20061;-84
2021/03/19 03:07:27;;;;;;;28.12;13.75;;;;;;;;;;4102660;35;20069;-83
2021/03/19 03:09:56;;;;;;;28.87;13.60;;;;;;;;;;4082975;35;20087;-83
2021/03/19 03:12:24;;;;;;;26.60;15.50;;;;;;;;;;4114098;29;20097;-95
2021/03/19 03:14:56;;;;;;;26.45;15.18;;;;;;;;;;4075456;35;20113;-96
2021/03/19 03:17:31;;;;;;;31.77;17.02;;;;;;;;;;4098244;35;20081;-96
2021/03/19 03:20:23;;;;;;;27.15;15.75;;;;;;;;;;4070859;35;20156;-95
2021/03/19 03:22:53;;;;;;;26.52;15.68;;;;;;;;;;4093353;35;20077;-96
2021/03/19 03:25:40;;;;;;;27.73;16.70;;;;;;;;;;4099542;35;20062;-96
2021/03/19 03:28:31;;;;;;;30.48;17.85;;;;;;;;;;4096837;35;20058;-96
2021/03/19 03:31:01;;;;;;;28.52;17.60;;;;;;;;;;4092056;35;20076;-95
2021/03/19 03:33:32;;;;;;;31.40;16.50;;;;;;;;;;4069168;35;20088;-95
2021/03/19 03:36:05;;;;;;;27.13;13.57;;;;;;;;;;4065680;35;20086;-96
2021/03/19 03:38:35;;;;;;;26.42;13.23;;;;;;;;;;4073621;35;20068;-96
2021/03/19 03:41:16;;;;;;;27.17;14.52;;;;;;;;;;4082247;35;20096;-94
2021/03/19 03:43:46;;;;;;;28.20;15.27;;;;;;;;;;4094269;35;20071;-96
2021/03/19 03:46:16;;;;;;;27.55;16.58;;;;;;;;;;4072984;35;20094;-95
2021/03/19 03:48:46;;;;;;;27.62;17.15;;;;;;;;;;4083572;35;20114;-96
2021/03/19 03:51:15;;;;;;;30.80;18.10;;;;;;;;;;4074000;35;20120;-95
2021/03/19 03:53:44;;;;;;;22.58;16.48;;;;;;;;;;4072684;35;20097;-96
2021/03/19 03:56:32;;;;;;;25.33;16.73;;;;;;;;;;4075722;35;20086;-96
2021/03/19 03:59:12;;;;;;;30.70;19.45;;;;;;;;;;4087941;35;20139;-96
2021/03/19 04:01:48;;;;;;;26.80;17.92;;;;;;;;;;4082593;35;20475;-96
2021/03/19 04:04:26;;;;;;;28.25;16.40;;;;;;;;;;4070104;35;20065;-96
2021/03/19 04:06:58;;;;;;;21.75;13.93;;;;;;;;;;4075784;35;20767;-94
2021/03/19 04:09:27;;;;;;;22.52;11.30;;;;;;;;;;4084578;35;20128;-96
2021/03/19 04:11:56;;;;;;;21.37;13.30;;;;;;;;;;4089981;35;20138;-96
2021/03/19 04:14:24;;;;;;;23.08;16.37;;;;;;;;;;4078103;35;20042;-96
2021/03/19 04:16:58;;;;;;;13.68;3.83;;;;;;;;;;4075030;35;20070;-96
2021/03/19 04:19:32;;;;;;;19.87;4.75;;;;;;;;;;4099869;35;20064;-95
2021/03/19 04:22:05;;;;;;;19.12;3.90;;;;;;;;;;4082942;35;20055;-95
2021/03/19 04:24:41;;;;;;;15.07;4.10;;;;;;;;;;4087964;35;20058;-96
2021/03/19 04:27:13;;;;;;;20.55;4.25;;;;;;;;;;4087371;35;20050;-95
2021/03/19 04:29:42;;;;;;;19.65;4.22;;;;;;;;;;4085273;35;20058;-96
2021/03/19 04:32:22;;;;;;;17.02;4.10;;;;;;;;;;4081620;35;20150;-95
2021/03/19 04:34:51;;;;;;;24.15;13.27;;;;;;;;;;4077085;35;20507;-96
2021/03/19 04:37:19;;;;;;;24.45;17.05;;;;;;;;;;4083006;35;20078;-95
2021/03/19 04:39:55;;;;;;;16.27;3.62;;;;;;;;;;4099807;35;20053;-96
2021/03/19 04:42:27;;;;;;;21.50;3.90;;;;;;;;;;4089364;35;20049;-96
2021/03/19 04:44:55;;;;;;;17.25;3.95;;;;;;;;;;4073869;35;20121;-96
2021/03/19 04:47:32;;;;;;;22.83;10.10;;;;;;;;;;4086426;35;20111;-96
2021/03/19 04:50:05;;;;;;;16.80;4.60;;;;;;;;;;4092229;35;20112;-96
2021/03/19 04:52:40;;;;;;;19.73;3.87;;;;;;;;;;4097697;35;20062;-96
2021/03/19 04:55:10;;;;;;;18.10;3.83;;;;;;;;;;4096415;35;20053;-96
2021/03/19 04:57:39;;;;;;;19.40;3.55;;;;;;;;;;4087199;35;20461;-96
2021/03/19 05:00:10;;;;;;;25.02;4.53;;;;;;;;;;4101936;35;20046;-96
2021/03/19 05:02:45;;;;;;;22.15;3.92;;;;;;;;;;4078309;35;20167;-95
2021/03/19 05:05:21;;;;;;;13.75;3.05;;;;;;;;;;4095558;35;20081;-95
2021/03/19 05:07:51;;;;;;;17.42;3.80;;;;;;;;;;4087962;35;20086;-96
2021/03/19 05:10:22;;;;;;;16.23;4.18;;;;;;;;;;4089606;35;20070;-96
2021/03/19 05:12:56;;;;;;;22.13;3.72;;;;;;;;;;4091541;35;20092;-95
2021/03/19 05:15:28;;;;;;;12.40;4.15;;;;;;;;;;4077519;35;20058;-95
2021/03/19 05:17:58;;;;;;;14.82;3.75;;;;;;;;;;4078228;35;20084;-95
2021/03/19 05:20:32;;;;;;;22.17;12.85;;;;;;;;;;4080699;35;20054;-96
2021/03/19 05:23:17;;;;;;;18.80;4.00;;;;;;;;;;4088438;35;20062;-96
2021/03/19 05:25:46;;;;;;;16.80;4.10;;;;;;;;;;4066113;35;20504;-95
2021/03/19 05:28:15;;;;;;;21.55;5.22;;;;;;;;;;4074225;35;20503;-96
2021/03/19 05:30:43;;;;;;;14.87;8.38;;;;;;;;;;4085311;35;20093;-96
2021/03/19 05:33:11;;;;;;;12.20;6.68;;;;;;;;;;4073756;35;20057;-96
2021/03/19 05:35:44;;;;;;;17.92;3.45;;;;;;;;;;4078040;35;20066;-96
2021/03/19 05:38:12;;;;;;;12.50;3.55;;;;;;;;;;4086964;35;20081;-96
2021/03/19 05:40:47;;;;;;;17.27;4.03;;;;;;;;;;4072923;35;20120;-95
2021/03/19 05:43:23;;;;;;;13.88;4.05;;;;;;;;;;4078042;35;20074;-96
2021/03/19 05:46:06;;;;;;;15.43;3.40;;;;;;;;;;4076459;35;20117;-95
2021/03/19 05:48:39;;;;;;;14.15;3.42;;;;;;;;;;4089170;35;20095;-96
2021/03/19 05:51:16;;;;;;;14.15;3.60;;;;;;;;;;4072306;35;20066;-95
2021/03/19 05:53:53;;;;;;;13.93;3.10;;;;;;;;;;4084434;35;20070;-96
2021/03/19 05:56:22;;;;;;;;;;;;;;;;;;4075534;35;20046;-96
2021/03/19 05:58:53;;;;;;;11.93;3.17;;;;;;;;;;4090435;35;19959;-95
2021/03/19 06:01:24;;;;;;;18.20;3.20;;;;;;;;;;4068870;35;20104;-96
2021/03/19 06:03:59;;;;;;;19.00;3.60;;;;;;;;;;4083919;35;20084;-96
2021/03/19 06:07:08;;;;;;;13.50;3.25;;;;;;;;;;4086103;35;20070;-96
2021/03/19 06:09:42;;;;;;;15.43;3.72;;;;;;;;;;4060652;35;20073;-95
2021/03/19 06:12:13;;;;;;;14.93;3.47;;;;;;;;;;4078682;35;20062;-96
2021/03/19 06:14:48;;;;;;;14.60;3.70;;;;;;;;;;4083489;35;20073;-95
2021/03/19 06:17:58;;;;;;;20.42;3.97;;;;;;;;;;4089838;35;20049;-94
2021/03/19 06:20:33;;;;;;;23.40;12.90;;;;;;;;;;4059084;35;20067;-94
2021/03/19 06:23:06;;;;;;;14.07;3.45;;;;;;;;;;4056499;35;20069;-95
2021/03/19 06:25:43;;;;;;;24.92;11.57;;;;;;;;;;4064877;35;20076;-95
2021/03/19 06:28:34;;;;;;;18.02;4.25;;;;;;;;;;4091134;35;20446;-95
2021/03/19 06:31:15;;;;;;;12.82;2.85;;;;;;;;;;4082527;35;20058;-96
2021/03/19 06:33:45;;;;;;;12.75;3.25;;;;;;;;;;4071016;35;20092;-94
2021/03/19 06:36:17;;;;;;;12.00;3.12;;;;;;;;;;4075114;35;20066;-95
2021/03/19 06:39:05;;;;;;;9.98;3.22;;;;;;;;;;4080562;35;20054;-96
2021/03/19 06:41:39;;;;;;;18.98;4.07;;;;;;;;;;4074761;35;20080;-95
2021/03/19 06:44:33;;;;;;;16.90;3.30;;;;;;;;;;4077858;35;20072;-96
2021/03/19 06:47:17;;;;;;;11.68;3.37;;;;;;;;;;4077591;35;20129;-96
2021/03/19 06:49:56;;;;;;;13.70;3.50;;;;;;;;;;4090455;35;20433;-96
2021/03/19 06:52:41;;;;;;;12.35;3.40;;;;;;;;;;4083459;35;20078;-96
2021/03/19 06:55:34;;;;;;;14.18;7.53;;;;;;;;;;4070519;35;20080;-96
2021/03/19 06:58:05;;;;;;;14.10;3.42;;;;;;;;;;4074240;35;20413;-97
2021/03/19 07:00:46;;;;;;;20.48;18.52;;;;;;;;;;4085660;35;20112;-95
2021/03/19 07:03:37;;;;;;;14.98;6.10;;;;;;;;;;4081724;35;20061;-95
2021/03/19 07:06:18;;;;;;;1999.90;999.90;;;;;;;;;;4082846;35;20117;-96
2021/03/19 07:08:58;;;;;;;25.02;20.35;;;;;;;;;;4075234;35;20061;-96
2021/03/19 07:12:02;;;;;;;26.77;22.08;;;;;;;;;;4076540;35;20050;-95
2021/03/19 07:14:50;;;;;;;133.15;122.87;;;;;;;;;;4067294;35;20492;-95
2021/03/19 07:17:38;;;;;;;1.50;1.50;;;;;;;;;;4084291;35;20117;-95
2021/03/19 07:20:17;;;;;;;13.18;2.37;;;;;;;;;;4078755;35;20085;-96
2021/03/19 07:23:03;;;;;;;0.47;0.47;;;;;;;;;;4087091;35;20055;-96
2021/03/19 07:26:09;;;;;;;0.40;0.40;;;;;;;;;;4101664;35;20370;-96
2021/03/19 07:29:05;;;;;;;0.50;0.50;;;;;;;;;;4089788;35;20506;-96
2021/03/19 07:31:54;;;;;;;0.80;0.80;;;;;;;;;;4086363;35;20206;-96
2021/03/19 07:34:58;;;;;;;0.70;0.70;;;;;;;;;;4086724;35;20058;-96
2021/03/19 07:37:39;;;;;;;142.87;128.05;;;;;;;;;;4090164;35;20099;-96
2021/03/19 07:40:23;;;;;;;20.90;9.30;;;;;;;;;;4099741;35;20068;-96
2021/03/19 07:43:11;;;;;;;34.42;23.15;;;;;;;;;;4094502;35;20055;-96
2021/03/19 07:45:56;;;;;;;36.80;27.92;;;;;;;;;;4088548;35;20076;-95
2021/03/19 07:48:44;;;;;;;10.48;2.90;;;;;;;;;;4101558;35;20072;-95
2021/03/19 07:51:34;;;;;;;29.42;21.08;;;;;;;;;;4074765;35;20144;-94
2021/03/19 07:54:12;;;;;;;22.15;15.65;;;;;;;;;;4074837;35;20050;-94
2021/03/19 07:56:54;;;;;;;13.73;3.92;;;;;;;;;;4083506;35;20100;-96
2021/03/19 07:59:35;;;;;;;13.18;2.85;;;;;;;;;;4097726;35;20062;-95
2021/03/19 08:02:13;;;;;;;19.08;16.58;;;;;;;;;;4081036;35;20105;-96
2021/03/19 08:05:02;;;;;;;37.78;34.05;;;;;;;;;;4085863;35;20058;-96
2021/03/19 08:07:42;;;;;;;15.90;3.42;;;;;;;;;;4094395;35;20099;-95
2021/03/19 08:10:26;;;;;;;12.75;9.57;;;;;;;;;;4087981;35;20401;-96
2021/03/19 08:15:59;;;;;;;1999.90;591.33;;;;;;;;;;4089959;35;20088;-96
2021/03/19 08:18:40;;;;;;;12.35;2.83;;;;;;;;;;4080995;35;20070;-96
2021/03/19 08:21:32;;;;;;;9.10;3.47;;;;;;;;;;4080617;35;20073;-96
2021/03/19 08:24:38;;;;;;;10.23;2.60;;;;;;;;;;4093327;34;20066;-96
2021/03/19 08:28:03;;;;;;;9.95;2.72;;;;;;;;;;4097817;35;20081;-96
2021/03/19 08:34:08;;;;;;;12.75;3.22;;;;;;;;;;4135368;29;20041;-84
2021/03/19 08:36:44;;;;;;;21.20;7.03;;;;;;;;;;4096672;35;20447;-84
2021/03/19 08:39:24;;;;;;;8.30;2.30;;;;;;;;;;4084585;35;20121;-84
2021/03/19 08:41:57;;;;;;;13.65;3.90;;;;;;;;;;4093176;35;20069;-84
2021/03/19 08:44:30;;;;;;;9.47;2.67;;;;;;;;;;4104790;35;20076;-84
2021/03/19 08:47:17;;;;;;;10.23;3.67;;;;;;;;;;4095038;35;20148;-85
2021/03/19 08:49:48;;;;;;;9.38;2.50;;;;;;;;;;4102498;35;20054;-83
2021/03/19 08:52:19;;;;;;;6.12;2.83;;;;;;;;;;4096607;35;20453;-84
2021/03/19 08:55:07;;;;;;;8.82;3.47;;;;;;;;;;4098243;35;20113;-84
2021/03/19 08:57:36;;;;;;;13.70;5.97;;;;;;;;;;4086122;35;20086;-84
2021/03/19 09:00:37;;;;;;;11.75;5.82;;;;;;;;;;4091341;35;20458;-84
2021/03/19 09:03:06;;;;;;;6.95;2.80;;;;;;;;;;4087968;35;20116;-84
2021/03/19 09:05:37;;;;;;;10.70;2.50;;;;;;;;;;4092921;35;20054;-84
2021/03/19 09:08:24;;;;;;;11.68;3.22;;;;;;;;;;4088941;35;20053;-84
2021/03/19 09:10:53;;;;;;;7.65;3.00;;;;;;;;;;4096795;35;20601;-85
2021/03/19 09:13:22;;;;;;;8.88;2.40;;;;;;;;;;4096255;35;20112;-85
2021/03/19 09:15:53;;;;;;;6.95;2.58;;;;;;;;;;4096692;35;20080;-85
2021/03/19 09:18:42;;;;;;;7.43;2.55;;;;;;;;;;4096267;35;20140;-85
2021/03/19 09:21:11;;;;;;;608.33;327.52;;;;;;;;;;4098059;35;20449;-86
2021/03/19 09:23:55;;;;;;;5.10;1.70;;;;;;;;;;4095330;35;20119;-85
2021/03/19 09:26:26;;;;;;;1999.90;999.90;;;;;;;;;;4097712;35;20101;-84
2021/03/19 09:28:54;;;;;;;1999.90;999.90;;;;;;;;;;4099845;35;20129;-85
2021/03/19 09:31:26;;;;;;;1999.90;999.90;;;;;;;;;;4090188;35;20080;-83
2021/03/19 09:34:16;;;;;;;1999.90;999.90;;;;;;;;;;4094856;35;20577;-84
2021/03/19 09:36:53;;;;;;;147.87;14.87;;;;;;;;;;4094698;35;20556;-83
2021/03/19 09:39:40;;;;;;;8.55;2.20;;;;;;;;;;4101985;35;20065;-85
2021/03/19 09:42:13;;;;;;;14.50;2.83;;;;;;;;;;4096894;35;20100;-84
2021/03/19 09:44:42;;;;;;;14.73;2.60;;;;;;;;;;4096782;35;20120;-84
2021/03/19 09:47:10;;;;;;;11.70;2.75;;;;;;;;;;4091035;35;20057;-84
2021/03/19 09:49:38;;;;;;;12.68;4.75;;;;;;;;;;4099770;35;20062;-84
2021/03/19 09:52:13;;;;;;;11.75;3.05;;;;;;;;;;4094695;35;20113;-84
2021/03/19 09:54:42;;;;;;;8.93;4.07;;;;;;;;;;4093560;35;20065;-85
2021/03/19 09:57:13;;;;;;;12.20;2.90;;;;;;;;;;4096775;35;20887;-83
2021/03/19 09:59:43;;;;;;;14.45;10.63;;;;;;;;;;4090438;35;20240;-84
2021/03/19 10:02:42;;;;;;;23.73;21.70;;;;;;;;;;4089239;35;20506;-85
2021/03/19 10:05:11;;;;;;;22.98;21.20;;;;;;;;;;4085403;35;20534;-85
2021/03/19 10:07:48;;;;;;;14.45;13.18;;;;;;;;;;4079503;35;20058;-85
2021/03/19 10:10:29;;;;;;;12.27;11.00;;;;;;;;;;4086325;35;20065;-85
2021/03/19 10:13:07;;;;;;;211.57;196.75;;;;;;;;;;4093624;35;20061;-86
2021/03/19 10:15:36;;;;;;;13.88;12.65;;;;;;;;;;4095020;35;20089;-85
2021/03/19 10:18:06;;;;;;;14.18;12.98;;;;;;;;;;4097936;35;20454;-85
2021/03/19 10:20:41;;;;;;;18.45;16.00;;;;;;;;;;4086427;35;20097;-85
2021/03/19 10:23:09;;;;;;;10.85;9.50;;;;;;;;;;4096975;35;20076;-85
2021/03/19 10:25:45;;;;;;;11.90;4.72;;;;;;;;;;4086460;35;20074;-85
2021/03/19 10:28:13;;;;;;;11.65;4.85;;;;;;;;;;4092984;35;20489;-85
2021/03/19 10:30:44;;;;;;;9.77;2.83;;;;;;;;;;4094582;35;20062;-84
2021/03/19 10:33:15;;;;;;;9.38;2.70;;;;;;;;;;4093991;35;20070;-85
2021/03/19 10:35:52;;;;;;;20.27;18.45;;;;;;;;;;4086076;35;20124;-85
2021/03/19 10:38:26;;;;;;;39.80;35.83;;;;;;;;;;4095550;35;20046;-84
2021/03/19 10:41:00;;;;;;;23.77;21.45;;;;;;;;;;4090606;35;20078;-85
2021/03/19 10:43:40;;;;;;;11.32;2.60;;;;;;;;;;4097151;35;20126;-85
2021/03/19 10:46:15;;;;;;;13.73;2.58;;;;;;;;;;4093764;35;20092;-85
2021/03/19 10:48:48;;;;;;;6.37;2.35;;;;;;;;;;4102213;35;20536;-85
2021/03/19 10:51:46;;;;;;;9.82;4.90;;;;;;;;;;4098770;35;20066;-85
2021/03/19 10:54:34;;;;;;;12.85;9.98;;;;;;;;;;4082953;35;20066;-85
2021/03/19 10:57:23;;;;;;;7.62;2.28;;;;;;;;;;4094486;35;20438;-85
2021/03/19 10:59:53;;;;;;;9.15;2.72;;;;;;;;;;4083184;35;20096;-85
2021/03/19 11:02:21;;;;;;;7.97;2.50;;;;;;;;;;4092780;35;20481;-85
2021/03/19 11:04:58;;;;;;;10.25;2.65;;;;;;;;;;4097329;35;20058;-84
2021/03/19 11:07:27;;;;;;;14.40;8.68;;;;;;;;;;4101244;35;20422;-84
2021/03/19 11:10:18;;;;;;;11.18;2.85;;;;;;;;;;4094493;35;20054;-85
2021/03/19 11:12:52;;;;;;;9.95;3.72;;;;;;;;;;4083063;35;20466;-85
2021/03/19 11:15:23;;;;;;;8.95;3.90;;;;;;;;;;4093022;35;20065;-84
2021/03/19 11:18:10;;;;;;;10.77;2.58;;;;;;;;;;4090143;35;20355;-85
2021/03/19 11:20:56;;;;;;;10.55;3.00;;;;;;;;;;4096762;35;20139;-84
2021/03/19 11:23:25;;;;;;;10.38;3.03;;;;;;;;;;4095808;35;20054;-84
2021/03/19 11:25:57;;;;;;;14.80;2.95;;;;;;;;;;4091020;35;20495;-84
2021/03/19 11:28:36;;;;;;;9.40;2.75;;;;;;;;;;4093270;35;20092;-85
2021/03/19 11:31:17;;;;;;;8.95;2.62;;;;;;;;;;4096147;35;20071;-84
2021/03/19 11:33:56;;;;;;;8.77;2.67;;;;;;;;;;4100435;35;20471;-85
2021/03/19 11:36:26;;;;;;;9.30;4.28;;;;;;;;;;4083134;35;20092;-84
2021/03/19 11:39:10;;;;;;;8.98;2.62;;;;;;;;;;4095304;35;20053;-84
2021/03/19 11:41:42;;;;;;;9.85;4.00;;;;;;;;;;4093754;35;20087;-85
2021/03/19 11:44:13;;;;;;;8.90;2.50;;;;;;;;;;4090745;35;20067;-85
2021/03/19 11:46:41;;;;;;;11.25;2.70;;;;;;;;;;4096259;35;21750;-84
2021/03/19 11:49:14;;;;;;;9.48;3.78;;;;;;;;;;4090008;35;20090;-85
2021/03/19 11:51:47;;;;;;;13.25;7.70;;;;;;;;;;4093696;35;20085;-85
2021/03/19 11:54:16;;;;;;;9.35;2.85;;;;;;;;;;4097430;35;20446;-84
2021/03/19 11:56:54;;;;;;;14.20;6.95;;;;;;;;;;4098182;35;20554;-84
2021/03/19 11:59:22;;;;;;;10.80;2.65;;;;;;;;;;4088272;35;20387;-84
2021/03/19 12:02:05;;;;;;;11.55;3.10;;;;;;;;;;4092572;35;20074;-84
2021/03/19 12:04:38;;;;;;;25.17;5.85;;;;;;;;;;4100624;35;20190;-84
2021/03/19 12:07:08;;;;;;;10.52;2.50;;;;;;;;;;4091748;35;20080;-85
2021/03/19 12:09:37;;;;;;;23.92;10.00;;;;;;;;;;4090209;35;20208;-84
2021/03/19 12:12:12;;;;;;;9.35;2.92;;;;;;;;;;4093894;35;20124;-84
2021/03/19 12:14:41;;;;;;;12.77;7.15;;;;;;;;;;4088780;35;20628;-85
2021/03/19 12:17:12;;;;;;;11.05;2.83;;;;;;;;;;4090780;35;20391;-84
2021/03/19 12:19:41;;;;;;;9.30;5.65;;;;;;;;;;4094379;35;20479;-86
2021/03/19 12:22:09;;;;;;;6.75;2.60;;;;;;;;;;4094109;35;20054;-85
2021/03/19 12:24:49;;;;;;;11.00;5.72;;;;;;;;;;4097166;35;20093;-84
2021/03/19 12:27:20;;;;;;;11.32;2.87;;;;;;;;;;4097707;35;20541;-85
2021/03/19 12:29:49;;;;;;;13.88;2.80;;;;;;;;;;4094302;35;20065;-85
2021/03/19 12:32:18;;;;;;;8.48;4.40;;;;;;;;;;4091117;35;20103;-85
2021/03/19 12:34:47;;;;;;;9.35;3.85;;;;;;;;;;4090471;35;20479;-85
2021/03/19 12:37:16;;;;;;;7.75;2.53;;;;;;;;;;4096967;35;20421;-84
2021/03/19 12:39:45;;;;;;;10.07;2.22;;;;;;;;;;4097258;34;20100;-84
2021/03/19 12:42:13;;;;;;;14.98;5.03;;;;;;;;;;4089633;35;20050;-84
2021/03/19 12:44:41;;;;;;;7.55;3.20;;;;;;;;;;4098398;35;20066;-84
2021/03/19 12:47:09;;;;;;;7.22;3.67;;;;;;;;;;4098845;35;20105;-85
2021/03/19 12:49:37;;;;;;;14.20;2.78;;;;;;;;;;4092410;35;20046;-85
2021/03/19 12:52:05;;;;;;;10.68;2.50;;;;;;;;;;4093490;35;20429;-85
2021/03/19 12:54:35;;;;;;;14.10;2.83;;;;;;;;;;4093959;35;20109;-84
2021/03/19 12:57:03;;;;;;;9.40;2.15;;;;;;;;;;4097101;35;20086;-85
2021/03/19 12:59:46;;;;;;;8.53;2.27;;;;;;;;;;4099721;35;20066;-85
2021/03/19 13:02:14;;;;;;;9.00;2.25;;;;;;;;;;4092796;35;20100;-84
2021/03/19 13:04:43;;;;;;;10.95;2.50;;;;;;;;;;4095085;35;20058;-85
2021/03/19 13:07:11;;;;;;;15.93;3.20;;;;;;;;;;4089948;35;20162;-85
2021/03/19 13:09:39;;;;;;;10.55;2.50;;;;;;;;;;4096776;35;20051;-84
2021/03/19 13:12:07;;;;;;;14.30;2.40;;;;;;;;;;4091804;35;20062;-85
2021/03/19 13:14:50;;;;;;;10.25;2.20;;;;;;;;;;4093772;35;20070;-85
2021/03/19 13:17:19;;;;;;;7.20;2.03;;;;;;;;;;4086043;35;20090;-84
2021/03/19 13:19:47;;;;;;;8.77;2.60;;;;;;;;;;4095981;35;20097;-84
2021/03/19 13:22:16;;;;;;;28.17;3.70;;;;;;;;;;4097211;35;20067;-84
2021/03/19 13:24:45;;;;;;;10.38;2.37;;;;;;;;;;4090704;35;20429;-85
2021/03/19 13:27:12;;;;;;;11.82;2.42;;;;;;;;;;4091190;35;20483;-85
2021/03/19 13:29:40;;;;;;;12.57;2.58;;;;;;;;;;4095351;35;20116;-85
2021/03/19 13:32:09;;;;;;;9.70;2.33;;;;;;;;;;4088030;35;20399;-84
2021/03/19 13:34:38;;;;;;;10.20;2.03;;;;;;;;;;4094549;35;20097;-85
2021/03/19 13:37:06;;;;;;;9.95;2.35;;;;;;;;;;4092001;35;20074;-85
2021/03/19 13:39:35;;;;;;;15.13;2.25;;;;;;;;;;4096739;35;20101;-84
2021/03/19 13:42:06;;;;;;;7.80;1.90;;;;;;;;;;4103020;35;20065;-84
2021/03/19 13:44:41;;;;;;;12.02;2.00;;;;;;;;;;4085001;35;20085;-85
2021/03/19 13:47:18;;;;;;;10.50;2.40;;;;;;;;;;4088832;35;20120;-84
2021/03/19 13:49:46;;;;;;;9.15;2.33;;;;;;;;;;4093586;35;20093;-84
2021/03/19 13:52:14;;;;;;;9.15;2.05;;;;;;;;;;4088870;35;20430;-85
2021/03/19 13:54:42;;;;;;;9.48;2.30;;;;;;;;;;4099094;35;20484;-85
2021/03/19 13:57:12;;;;;;;6.95;1.70;;;;;;;;;;4093280;35;20070;-84
2021/03/19 13:59:44;;;;;;;9.23;2.17;;;;;;;;;;4096896;35;20109;-84
2021/03/19 14:02:14;;;;;;;8.73;2.25;;;;;;;;;;4089683;35;20068;-84
2021/03/19 14:04:43;;;;;;;8.60;1.90;;;;;;;;;;4087662;35;20459;-84
2021/03/19 14:07:11;;;;;;;10.20;2.40;;;;;;;;;;4088040;35;20093;-85
2021/03/19 14:09:39;;;;;;;6.95;2.20;;;;;;;;;;4095407;35;20164;-85
2021/03/19 14:12:07;;;;;;;11.57;2.15;;;;;;;;;;4098717;35;21749;-84
2021/03/19 14:14:35;;;;;;;10.48;2.10;;;;;;;;;;4094838;35;20462;-85
2021/03/19 14:17:03;;;;;;;11.20;2.33;;;;;;;;;;4092234;35;20078;-84
2021/03/19 14:19:32;;;;;;;7.70;2.05;;;;;;;;;;4088074;35;20062;-84
2021/03/19 14:22:02;;;;;;;11.07;2.17;;;;;;;;;;4095254;35;20505;-84
2021/03/19 14:24:30;;;;;;;12.40;2.37;;;;;;;;;;4099459;35;20413;-84
2021/03/19 14:26:58;;;;;;;7.22;2.05;;;;;;;;;;4097625;35;20372;-84
2021/03/19 14:29:26;;;;;;;10.10;2.10;;;;;;;;;;4095556;35;20062;-84
2021/03/19 14:31:54;;;;;;;8.63;2.22;;;;;;;;;;4099979;35;20148;-85
2021/03/19 14:34:26;;;;;;;9.00;1.80;;;;;;;;;;4093995;35;20402;-85
2021/03/19 14:37:00;;;;;;;5.80;1.52;;;;;;;;;;4089320;35;20081;-84
2021/03/19 14:39:29;;;;;;;6.45;2.05;;;;;;;;;;4093720;35;20085;-84
2021/03/19 14:41:57;;;;;;;7.93;1.83;;;;;;;;;;4098571;35;20065;-84
2021/03/19 14:44:25;;;;;;;11.65;2.30;;;;;;;;;;4094612;35;20077;-84
2021/03/19 14:46:56;;;;;;;12.43;2.00;;;;;;;;;;4100893;35;20061;-85
2021/03/19 14:49:25;;;;;;;9.27;1.87;;;;;;;;;;4098931;35;20530;-84
2021/03/19 14:51:53;;;;;;;8.95;1.80;;;;;;;;;;4101113;35;20065;-84
2021/03/19 14:54:21;;;;;;;17.30;2.60;;;;;;;;;;4077127;35;20140;-84
2021/03/19 14:56:52;;;;;;;10.65;2.50;;;;;;;;;;4091868;35;20339;-84
2021/03/19 14:59:21;;;;;;;7.15;1.80;;;;;;;;;;4098203;35;20088;-84
2021/03/19 15:01:49;;;;;;;8.50;1.62;;;;;;;;;;4097010;34;20063;-83
2021/03/19 15:04:17;;;;;;;15.98;2.70;;;;;;;;;;4098643;35;20104;-83
2021/03/19 15:06:46;;;;;;;9.25;2.30;;;;;;;;;;4098401;35;20120;-84
2021/03/19 15:09:15;;;;;;;11.05;1.98;;;;;;;;;;4095672;35;20086;-84
2021/03/19 15:11:43;;;;;;;10.20;2.25;;;;;;;;;;4102423;35;20446;-84
2021/03/19 15:14:11;;;;;;;10.95;2.30;;;;;;;;;;4096532;35;20076;-85
2021/03/19 15:16:39;;;;;;;9.60;2.55;;;;;;;;;;4102061;35;20470;-84
2021/03/19 15:19:08;;;;;;;10.80;2.12;;;;;;;;;;4102425;35;20454;-85